»·PEaware :: N951J KNFL-KRTS

N951J :: KNFL-KRTS

FLIGHT INFORMATION

Flight Status: Arrived
Operator: Privately registered:
United States
More flights under this callsign
Pilot: Ben H. (9170)
Aircraft: MOONEY M-20 201 202 205 220 ATS MSE
(M20P)
More flights by this aircraft type
Origin: KNFL Fallon NAS
United States
Destination: KRTS Reno/Stead
United States
More flights between these airports :: More routes between these airports
Route: WATER7 HZN
File this flight plan on PilotEdge
Remarks:
Altitude:
(Current/Filed)
10,000ft
Speed:
(Current/Filed)
160kts
Departed: 07-Sep-19 03:21 PM
Arrived: 07-Sep-19 03:53 PM
Distance/Time
Traveled:
57nm/0:32
Distance/Time
To Go:
Arrived

Flight Plot

Page will automatically refresh every two minutes.

Flight plan parsing failed; only flown route is shown


Map Options




Map Legend


Flown Route
Filed Route
Departure Airport
Arrival Airport
Navaid (VOR, NDB)
Fix

Horizontal Profiles

Position Reports

Time Latitude Longitude Heading Altitude Ground
Speed
07-Sep-19 15:06 39.436978 -118.720277 318 3936ft 0kts
07-Sep-19 15:07 39.436978 -118.720277 318 3936ft 0kts
07-Sep-19 15:08 39.436978 -118.720277 318 3936ft 0kts
07-Sep-19 15:09 39.436949 -118.720169 190 3936ft 3kts
07-Sep-19 15:10 39.435901 -118.719831 132 3936ft 7kts
07-Sep-19 15:11 39.433701 -118.717097 80 3936ft 8kts
07-Sep-19 15:12 39.434865 -118.714803 55 3936ft 6kts
07-Sep-19 15:13 39.434904 -118.714729 54 3936ft 0kts
07-Sep-19 15:14 39.434905 -118.714729 54 3936ft 0kts
07-Sep-19 15:15 39.434905 -118.714729 54 3936ft 0kts
07-Sep-19 15:16 39.434905 -118.714729 54 3936ft 0kts
07-Sep-19 15:17 39.434905 -118.714729 54 3936ft 0kts
07-Sep-19 15:18 39.434905 -118.714729 54 3936ft 0kts
07-Sep-19 15:19 39.434923 -118.714694 54 3936ft 3kts
07-Sep-19 15:19 39.434475 -118.712933 143 3936ft 39kts
07-Sep-19 15:21 39.407871 -118.690077 146 4499ft 108kts
07-Sep-19 15:22 39.379915 -118.687560 265 5020ft 134kts
07-Sep-19 15:23 39.409190 -118.705024 12 5631ft 140kts
07-Sep-19 15:23 39.441637 -118.706894 353 6242ft 143kts
07-Sep-19 15:25 39.488527 -118.711563 355 7095ft 145kts
07-Sep-19 15:26 39.529073 -118.715239 355 7825ft 148kts
07-Sep-19 15:26 39.563480 -118.718349 355 8449ft 149kts
07-Sep-19 15:28 39.606046 -118.736801 283 9301ft 146kts
07-Sep-19 15:28 39.596649 -118.776963 241 9912ft 141kts
07-Sep-19 15:29 39.578321 -118.827205 242 9975ft 164kts
07-Sep-19 15:30 39.558220 -118.881857 242 9973ft 170kts
07-Sep-19 15:32 39.534710 -118.947199 242 9972ft 171kts
07-Sep-19 15:32 39.518390 -118.994125 253 9970ft 173kts
07-Sep-19 15:33 39.527506 -119.055996 277 9972ft 176kts
07-Sep-19 15:34 39.537753 -119.118567 279 9972ft 176kts
07-Sep-19 15:35 39.548639 -119.180717 279 9972ft 176kts
07-Sep-19 15:36 39.559498 -119.242829 279 9972ft 176kts
07-Sep-19 15:37 39.570355 -119.305188 279 9972ft 176kts
07-Sep-19 15:38 39.581119 -119.367043 279 9972ft 176kts
07-Sep-19 15:39 39.591849 -119.429065 279 9972ft 175kts
07-Sep-19 15:40 39.602534 -119.491007 279 9972ft 175kts
07-Sep-19 15:41 39.584332 -119.546360 238 9378ft 176kts
07-Sep-19 15:42 39.559588 -119.599651 237 8966ft 158kts
07-Sep-19 15:43 39.537102 -119.648069 238 8412ft 164kts
07-Sep-19 15:44 39.512593 -119.700312 237 7613ft 170kts
07-Sep-19 15:45 39.502672 -119.753143 298 7286ft 150kts
07-Sep-19 15:46 39.530415 -119.782806 330 7180ft 126kts
07-Sep-19 15:47 39.561072 -119.804664 326 7088ft 131kts
07-Sep-19 15:48 39.595902 -119.827642 332 6585ft 143kts
07-Sep-19 15:49 39.628785 -119.844995 324 5817ft 112kts
07-Sep-19 15:50 39.655612 -119.863170 322 5281ft 95kts
07-Sep-19 15:51 39.675284 -119.876350 326 5051ft 46kts
07-Sep-19 15:52 39.680536 -119.880552 247 5051ft 12kts
07-Sep-19 15:53 39.680479 -119.880715 242 5051ft 0kts
07-Sep-19 15:54 39.680479 -119.880715 242 5051ft 0kts
07-Sep-19 15:55 39.680479 -119.880715 242 5051ft 0kts
07-Sep-19 15:56 39.680479 -119.880715 242 5051ft 0kts

Navigation Log

Ident Type
Flight plan parsing failed, navigation log unavailable